Time;durP1;ratioP1;P1;durP2;ratioP2;P2;SDS_P1;SDS_P2;PMS_P1;PMS_P2;Temp;Humidity;BMP_temperature;BMP_pressure;BME280_temperature;BME280_humidity;BME280_pressure;Samples;Min_cycle;Max_cycle;Signal;HPM_P1;HPM_P2
2021/10/26 00:01:52;;;;;;;;;;;;;;;12.48;54.68;101487.06;5019992;28;96894;-87
2021/10/26 00:04:36;;;;;;;;;;;;;;;12.68;53.98;101482.88;5040617;28;96828;-87
2021/10/26 00:07:14;;;;;;;;;;;;;;;12.62;53.89;101475.13;5023925;28;96599;-88
2021/10/26 00:12:25;;;;;;;;;;;;;;;12.66;54.17;101478.56;5018106;28;97140;-85
2021/10/26 00:17:34;;;;;;;;;;;;;;;12.57;54.23;101479.69;5013920;28;96537;-88
2021/10/26 00:20:01;;;;;;;;;;;;;;;12.40;54.46;101484.69;5012782;28;97024;-87
2021/10/26 00:22:44;;;;;;;;;;;;;;;12.56;54.53;101477.97;5040533;28;100194;-87
2021/10/26 00:27:59;;;;;;;;;;;;;;;12.70;53.83;101472.22;5016833;28;96637;-85
2021/10/26 00:30:28;;;;;;;;;;;;;;;12.90;53.53;101466.25;5000557;28;97778;-89
2021/10/26 00:33:01;;;;;;;;;;;;;;;12.74;53.91;101474.72;5029928;28;99009;-87
2021/10/26 00:35:30;;;;;;;;;;;;;;;12.61;54.39;101467.19;5024693;28;96226;-87
2021/10/26 00:40:40;;;;;;;;;;;;;;;12.83;53.26;101452.31;5026236;27;98565;-87
2021/10/26 00:43:06;;;;;;;;;;;;;;;12.82;53.56;101458.53;5033579;28;99831;-86
2021/10/26 00:45:33;;;;;;;;;;;;;;;12.92;53.18;101454.69;5035206;28;96045;-85
2021/10/26 00:48:02;;;;;;;;;;;;;;;12.92;53.03;101457.34;5034106;28;96304;-86
2021/10/26 00:56:16;;;;;;;;;;;;;;;12.80;53.65;101452.41;5035114;28;96647;-86
2021/10/26 00:58:59;;;;;;;;;;;;;;;12.61;54.06;101461.91;5034021;28;95972;-86
2021/10/26 01:01:33;;;;;;;;;;;;;;;12.57;54.39;101460.28;5033680;28;99068;-88
2021/10/26 01:04:05;;;;;;;;;;;;;;;12.78;53.82;101454.28;5026420;28;99521;-87
2021/10/26 01:06:38;;;;;;;;;;;;;;;12.71;54.39;101453.63;5009295;28;96450;-87
2021/10/26 01:09:06;;;;;;;;;;;;;;;12.64;53.88;101461.81;5038918;28;97273;-86
2021/10/26 01:11:33;;;;;;;;;;;;;;;12.75;53.64;101464.97;5029189;28;99545;-87
2021/10/26 01:14:22;;;;;;;;;;;;;;;12.66;53.82;101460.00;5021728;28;96883;-86
2021/10/26 01:16:52;;;;;;;;;;;;;;;12.79;53.70;101458.66;5017269;28;96488;-87
2021/10/26 01:19:26;;;;;;;;;;;;;;;12.63;53.74;101468.03;5002901;28;96564;-88
2021/10/26 01:21:55;;;;;;;;;;;;;;;12.81;53.43;101477.16;5024049;28;99294;-88
2021/10/26 01:24:29;;;;;;;;;;;;;;;12.71;53.20;101468.66;5016694;28;98976;-88
2021/10/26 01:26:56;;;;;;;;;;;;;;;12.78;53.04;101467.53;5029930;28;96552;-87
2021/10/26 01:29:23;;;;;;;;;;;;;;;12.84;52.95;101472.63;4998206;28;96941;-87
2021/10/26 01:31:58;;;;;;;;;;;;;;;12.95;52.49;101473.13;5022822;28;101858;-89
2021/10/26 01:34:25;;;;;;;;;;;;;;;12.90;52.73;101475.06;5018390;28;99970;-88
2021/10/26 01:39:42;;;;;;;;;;;;;;;12.77;53.40;101473.75;5010863;28;96772;-88
2021/10/26 01:42:10;;;;;;;;;;;;;;;12.72;52.95;101476.56;5021501;28;100500;-89
2021/10/26 01:47:19;;;;;;;;;;;;;;;12.77;53.14;101481.72;5025865;28;96744;-88
2021/10/26 01:49:53;;;;;;;;;;;;;;;12.85;52.51;101479.69;5027258;28;96812;-88
2021/10/26 01:52:20;;;;;;;;;;;;;;;12.69;53.30;101470.47;5009727;28;98961;-88
2021/10/26 01:54:52;;;;;;;;;;;;;;;12.59;53.39;101469.06;5022890;28;97986;-86
2021/10/26 01:57:22;;;;;;;;;;;;;;;12.72;53.56;101475.69;5033024;28;96769;-86
2021/10/26 01:59:49;;;;;;;;;;;;;;;12.65;53.37;101468.84;5023491;28;96704;-87
2021/10/26 02:02:28;;;;;;;;;;;;;;;12.70;53.40;101462.47;5026920;28;97876;-87
2021/10/26 02:05:01;;;;;;;;;;;;;;;12.77;52.52;101465.78;5026919;28;98084;-87
2021/10/26 02:07:33;;;;;;;;;;;;;;;12.62;53.22;101467.16;5027223;28;96706;-88
2021/10/26 02:10:04;;;;;;;;;;;;;;;12.73;53.11;101469.47;5027369;28;96917;-89
2021/10/26 02:12:33;;;;;;;;;;;;;;;12.35;53.95;101460.94;5014045;28;96875;-88
2021/10/26 02:15:01;;;;;;;;;;;;;;;12.62;53.38;101463.63;5026701;28;98839;-88
2021/10/26 02:17:31;;;;;;;;;;;;;;;12.36;54.13;101457.41;5021746;28;96585;-87
2021/10/26 02:20:00;;;;;;;;;;;;;;;12.68;52.88;101464.31;5033799;28;96734;-88
2021/10/26 02:22:26;;;;;;;;;;;;;;;12.59;53.51;101466.41;5031628;28;101288;-87
2021/10/26 02:24:58;;;;;;;;;;;;;;;12.29;54.04;101471.75;5017728;28;98256;-87
2021/10/26 02:27:32;;;;;;;;;;;;;;;12.48;54.21;101466.72;5008837;28;96801;-87
2021/10/26 02:29:58;;;;;;;;;;;;;;;12.66;53.52;101462.63;5027794;28;96770;-88
2021/10/26 02:32:27;;;;;;;;;;;;;;;12.75;53.24;101457.00;5011636;28;96675;-87
2021/10/26 02:34:54;;;;;;;;;;;;;;;12.38;54.41;101466.16;5028152;28;100531;-87
2021/10/26 02:40:04;;;;;;;;;;;;;;;12.50;53.74;101464.03;5016676;28;96800;-86
2021/10/26 02:42:35;;;;;;;;;;;;;;;12.42;54.25;101456.31;5020520;28;100996;-88
2021/10/26 02:47:48;;;;;;;;;;;;;;;11.97;55.27;101455.97;5030444;28;96506;-86
2021/10/26 02:50:19;;;;;;;;;;;;;;;12.27;54.22;101447.06;5029600;28;96799;-86
2021/10/26 02:52:49;;;;;;;;;;;;;;;12.14;54.64;101455.47;5018442;28;96768;-86
2021/10/26 02:55:25;;;;;;;;;;;;;;;12.13;54.58;101459.91;5027777;28;98739;-86
2021/10/26 03:01:02;;;;;;;;;;;;;;;12.22;54.66;101458.72;5036444;28;96538;-88
2021/10/26 03:06:15;;;;;;;;;;;;;;;12.50;53.67;101453.44;5027155;28;96635;-88
2021/10/26 03:08:45;;;;;;;;;;;;;;;12.11;54.81;101451.13;5007136;28;96694;-88
2021/10/26 03:11:12;;;;;;;;;;;;;;;12.29;54.28;101455.84;5037340;28;96647;-87
2021/10/26 03:13:41;;;;;;;;;;;;;;;12.30;54.17;101460.22;5030953;28;99799;-88
2021/10/26 03:16:18;;;;;;;;;;;;;;;12.33;54.37;101451.34;5029933;28;100992;-89
2021/10/26 03:18:47;;;;;;;;;;;;;;;12.34;54.30;101451.25;5046755;27;96532;-86
2021/10/26 03:21:13;;;;;;;;;;;;;;;12.54;53.46;101455.94;5039495;28;95942;-86
2021/10/26 03:23:42;;;;;;;;;;;;;;;12.45;53.78;101460.69;5038814;28;99811;-88
2021/10/26 03:26:12;;;;;;;;;;;;;;;12.51;53.52;101455.19;5049019;27;99202;-84
2021/10/26 03:28:40;;;;;;;;;;;;;;;12.50;53.85;101448.13;5039631;27;96159;-83
2021/10/26 03:31:21;;;;;;;;;;;;;;;12.49;53.67;101451.69;5036962;28;96414;-87
2021/10/26 03:33:52;;;;;;;;;;;;;;;12.49;53.56;101454.34;5033545;28;97170;-88
2021/10/26 03:36:20;;;;;;;;;;;;;;;12.37;54.04;101443.22;5034803;28;96483;-87
2021/10/26 03:38:50;;;;;;;;;;;;;;;12.30;54.23;101447.00;5034658;28;96678;-87
2021/10/26 03:41:25;;;;;;;;;;;;;;;12.31;54.15;101454.03;5035008;28;95999;-86
2021/10/26 03:43:54;;;;;;;;;;;;;;;12.56;53.66;101461.19;5016913;28;97527;-88
2021/10/26 03:46:29;;;;;;;;;;;;;;;12.45;53.60;101458.03;5035157;28;99114;-88
2021/10/26 03:49:14;;;;;;;;;;;;;;;12.50;53.55;101459.59;5036268;28;96024;-88
2021/10/26 03:54:49;;;;;;;;;;;;;;;12.52;53.36;101459.56;5031408;28;99940;-88
2021/10/26 03:57:25;;;;;;;;;;;;;;;12.69;53.17;101459.88;5011119;28;99286;-87
2021/10/26 03:59:55;;;;;;;;;;;;;;;12.67;53.08;101451.97;5015022;28;96667;-86
2021/10/26 04:02:27;;;;;;;;;;;;;;;12.59;53.29;101453.16;5014312;28;96594;-87
2021/10/26 04:04:58;;;;;;;;;;;;;;;12.88;52.73;101450.38;5031283;28;99646;-87
2021/10/26 04:07:26;;;;;;;;;;;;;;;12.88;52.54;101452.16;5027544;28;99274;-89
2021/10/26 04:09:59;;;;;;;;;;;;;;;12.93;52.21;101456.38;5020866;28;96912;-87
2021/10/26 04:12:27;;;;;;;;;;;;;;;12.92;52.64;101456.47;5031153;28;96607;-88
2021/10/26 04:14:57;;;;;;;;;;;;;;;12.86;52.87;101460.19;5048400;28;99940;-87
2021/10/26 04:25:40;;;;;;;;;;;;;;;12.97;52.81;101471.31;5025404;28;98903;-86
2021/10/26 04:28:07;;;;;;;;;;;;;;;13.12;52.80;101475.22;5025451;28;99721;-87
2021/10/26 04:30:41;;;;;;;;;;;;;;;13.14;52.21;101474.28;5025680;28;96580;-85
2021/10/26 04:33:07;;;;;;;;;;;;;;;13.24;52.29;101472.19;5026189;28;96733;-87
2021/10/26 04:35:35;;;;;;;;;;;;;;;13.18;52.23;101471.53;5025383;28;100397;-87
2021/10/26 04:38:02;;;;;;;;;;;;;;;13.11;52.76;101474.34;5018246;28;100923;-86
2021/10/26 04:40:31;;;;;;;;;;;;;;;13.07;52.96;101467.41;5017506;28;96592;-87
2021/10/26 04:51:04;;;;;;;;;;;;;;;13.36;51.96;101470.88;5029738;28;96368;-87
2021/10/26 04:56:11;;;;;;;;;;;;;;;13.24;52.63;101469.53;5034447;28;96756;-88
2021/10/26 04:58:54;;;;;;;;;;;;;;;13.28;52.31;101462.31;5032403;28;98151;-87
2021/10/26 05:01:38;;;;;;;;;;;;;;;13.48;52.24;101471.28;5048764;27;95968;-83
2021/10/26 05:04:25;;;;;;;;;;;;;;;13.33;51.87;101471.84;5041591;27;96551;-86
2021/10/26 05:06:55;;;;;;;;;;;;;;;13.39;52.11;101479.56;5047463;27;99411;-85
2021/10/26 05:09:22;;;;;;;;;;;;;;;13.43;52.25;101485.66;5043983;28;98990;-86
2021/10/26 05:11:49;;;;;;;;;;;;;;;13.36;52.12;101492.97;5046438;27;96595;-85
2021/10/26 05:19:51;;;;;;;;;;;;;;;13.31;52.24;101476.34;5033945;27;98976;-85
2021/10/26 05:27:44;;;;;;;;;;;;;;;13.49;51.89;101483.66;5041066;28;99000;-88
2021/10/26 05:30:13;;;;;;;;;;;;;;;13.40;52.42;101496.38;5041318;28;96871;-87
2021/10/26 05:32:41;;;;;;;;;;;;;;;13.39;52.44;101490.19;5035144;28;96892;-88
2021/10/26 05:35:09;;;;;;;;;;;;;;;13.42;52.50;101490.09;5026872;28;97374;-88
2021/10/26 05:37:57;;;;;;;;;;;;;;;13.62;51.65;101475.25;5003581;28;98653;-85
2021/10/26 05:40:26;;;;;;;;;;;;;;;13.45;52.37;101487.34;5026099;28;100337;-85
2021/10/26 05:42:55;;;;;;;;;;;;;;;13.47;52.17;101493.47;5025651;28;96712;-83
2021/10/26 05:48:07;;;;;;;;;;;;;;;13.65;52.16;101491.94;5037464;28;99016;-87
2021/10/26 05:50:42;;;;;;;;;;;;;;;13.65;51.91;101485.75;5026394;28;100587;-86
2021/10/26 05:56:04;;;;;;;;;;;;;;;13.53;52.46;101487.06;5037177;28;96161;-87
2021/10/26 05:58:34;;;;;;;;;;;;;;;13.40;53.13;101493.72;5041840;27;98744;-87
2021/10/26 06:03:49;;;;;;;;;;;;;;;13.67;52.15;101495.41;5031157;28;96172;-87
2021/10/26 06:14:43;;;;;;;;;;;;;;;13.80;52.64;101502.00;5027513;28;96669;-87
2021/10/26 06:17:10;;;;;;;;;;;;;;;14.02;51.90;101506.50;5034172;28;96612;-88
2021/10/26 06:19:39;;;;;;;;;;;;;;;13.96;51.82;101511.13;5027551;28;97029;-86
2021/10/26 06:24:52;;;;;;;;;;;;;;;14.02;52.00;101510.03;5017607;28;96773;-88
2021/10/26 06:30:32;;;;;;;;;;;;;;;13.84;52.56;101519.56;5027143;28;96890;-88
2021/10/26 06:41:33;;;;;;;;;;;;;;;14.43;51.71;101528.88;4990869;28;96833;-87
2021/10/26 06:44:10;;;;;;;;;;;;;;;14.24;52.03;101534.84;5033181;28;98170;-88
2021/10/26 06:46:42;;;;;;;;;;;;;;;14.27;51.79;101533.88;5034809;28;96743;-87
2021/10/26 06:51:57;;;;;;;;;;;;;;;14.31;51.98;101541.69;5028909;28;98897;-87
2021/10/26 06:54:38;;;;;;;;;;;;;;;14.05;52.99;101548.91;5040446;28;97766;-89
2021/10/26 06:57:14;;;;;;;;;;;;;;;14.25;52.63;101552.53;5037346;28;96019;-88
2021/10/26 06:59:41;;;;;;;;;;;;;;;14.41;52.32;101554.66;5021019;28;96860;-89
2021/10/26 07:12:51;;;;;;;;;;;;;;;14.53;52.44;101573.66;5070410;27;99065;-88
2021/10/26 07:23:42;;;;;;;;;;;;;;;14.97;51.42;101565.69;5072232;27;98510;-86
2021/10/26 07:26:15;;;;;;;;;;;;;;;14.98;51.51;101564.78;5077967;27;99198;-89
2021/10/26 07:36:50;;;;;;;;;;;;;;;15.42;50.74;101562.94;5072278;27;97643;-89
2021/10/26 07:45:00;;;;;;;;;;;;;;;15.50;50.92;101560.81;5068055;27;99069;-90
2021/10/26 07:50:13;;;;;;;;;;;;;;;15.64;50.70;101574.44;5069157;27;96708;-89
2021/10/26 07:55:24;;;;;;;;;;;;;;;15.81;50.57;101576.38;5065527;27;98863;-90
2021/10/26 07:58:09;;;;;;;;;;;;;;;15.74;51.01;101582.91;5071203;27;118572;-90
2021/10/26 08:00:51;;;;;;;;;;;;;;;15.64;51.01;101578.88;5056258;27;96951;-90
2021/10/26 08:11:26;;;;;;;;;;;;;;;16.06;50.85;101587.69;5078019;27;95940;-89
2021/10/26 08:14:04;;;;;;;;;;;;;;;16.10;50.91;101581.25;5074421;27;96704;-87
2021/10/26 08:22:16;;;;;;;;;;;;;;;16.32;50.88;101576.69;5076981;27;96598;-89
2021/10/26 08:24:58;;;;;;;;;;;;;;;16.46;50.36;101584.06;5060550;27;96956;-89
2021/10/26 08:27:27;;;;;;;;;;;;;;;16.13;51.18;101581.13;5414239;22;99912;-89
2021/10/26 08:30:01;;;;;;;;;;;;;;;16.41;50.67;101572.72;5051935;27;99126;-88
2021/10/26 08:35:27;;;;;;;;;;;;;;;16.40;50.99;101575.47;5056676;27;96078;-88
2021/10/26 08:47:14;;;;;;;;;;;;;;;16.58;51.17;101569.25;5047396;27;96722;-89
2021/10/26 08:55:21;;;;;;;;;;;;;;;16.39;51.94;101584.41;5057661;27;96665;-89
2021/10/26 08:57:49;;;;;;;;;;;;;;;16.37;52.35;101587.13;5081025;27;95958;-86
2021/10/26 09:02:59;;;;;;;;;;;;;;;16.32;52.63;101589.16;5050650;28;98968;-88
2021/10/26 09:08:26;;;;;;;;;;;;;;;16.49;52.42;101588.34;5050654;27;96625;-87
2021/10/26 09:19:15;;;;;;;;;;;;;;;16.94;51.57;101591.53;5053134;27;96654;-87
2021/10/26 09:24:40;;;;;;;;;;;;;;;17.18;51.43;101592.16;5058873;28;99203;-87
2021/10/26 09:47:03;;;;;;;;;;;;;;;17.54;50.42;101610.81;5050722;27;97127;-90
2021/10/26 10:01:09;;;;;;;;;;;;;;;18.51;48.25;101602.16;5069819;27;96783;-84
2021/10/26 10:06:26;;;;;;;;;;;;;;;18.36;48.24;101606.50;5052370;27;98926;-86
2021/10/26 10:17:45;;;;;;;;;;;;;;;18.94;46.42;101590.78;5053284;27;98863;-90
2021/10/26 10:34:03;;;;;;;;;;;;;;;18.54;47.53;101602.81;5048284;27;96713;-88
2021/10/26 10:36:52;;;;;;;;;;;;;;;18.25;48.13;101599.03;5050965;27;96801;-90
2021/10/26 10:50:42;;;;;;;;;;;;;;;18.12;48.43;101608.69;5058605;27;98664;-88
2021/10/26 10:53:11;;;;;;;;;;;;;;;18.33;48.47;101604.00;5055636;28;97293;-89
2021/10/26 10:55:40;;;;;;;;;;;;;;;18.46;47.51;101604.19;5058623;28;96727;-87
2021/10/26 10:58:29;;;;;;;;;;;;;;;18.54;47.50;101601.97;5057815;27;96060;-85
2021/10/26 11:01:12;;;;;;;;;;;;;;;18.73;46.94;101604.50;5058276;27;99026;-88
2021/10/26 11:06:46;;;;;;;;;;;;;;;18.27;48.21;101604.31;5049425;28;96702;-87
2021/10/26 11:09:30;;;;;;;;;;;;;;;18.54;47.88;101597.47;5029220;28;96632;-88
2021/10/26 11:14:57;;;;;;;;;;;;;;;18.64;47.63;101605.91;5050025;28;96709;-88
2021/10/26 11:23:47;;;;;;;;;;;;;;;18.39;48.71;101605.47;5064775;27;98624;-87
2021/10/26 11:43:27;;;;;;;;;;;;;;;18.66;48.00;101588.78;5038167;27;96746;-88
2021/10/26 11:46:03;;;;;;;;;;;;;;;18.86;47.75;101593.03;5054160;27;98102;-87
2021/10/26 11:48:42;;;;;;;;;;;;;;;18.30;48.80;101598.81;5050483;27;100048;-86
2021/10/26 11:51:26;;;;;;;;;;;;;;;18.75;47.89;101589.22;5045244;28;96791;-87
2021/10/26 11:53:55;;;;;;;;;;;;;;;19.13;47.51;101590.59;5051638;28;96902;-86
2021/10/26 11:59:16;;;;;;;;;;;;;;;18.68;48.26;101597.59;5044555;27;97131;-86
2021/10/26 12:01:51;;;;;;;;;;;;;;;18.91;47.17;101592.75;5045808;27;96957;-87
2021/10/26 12:04:28;;;;;;;;;;;;;;;18.50;47.95;101590.56;5050544;27;96064;-85
2021/10/26 12:07:00;;;;;;;;;;;;;;;18.21;49.46;101589.47;5041307;27;98527;-86
2021/10/26 12:12:34;;;;;;;;;;;;;;;17.99;49.43;101586.19;5051804;28;96666;-87
2021/10/26 12:20:28;;;;;;;;;;;;;;;18.63;47.66;101585.44;5056524;27;98724;-86
2021/10/26 12:26:11;;;;;;;;;;;;;;;18.43;48.04;101589.19;5063619;27;96567;-88
2021/10/26 12:31:30;;;;;;;;;;;;;;;18.60;48.06;101589.13;5054862;22;98634;-86
2021/10/26 12:34:06;;;;;;;;;;;;;;;18.90;47.31;101589.25;5054157;28;96562;-87
2021/10/26 12:36:39;;;;;;;;;;;;;;;18.93;47.40;101593.53;5047832;27;96754;-87
2021/10/26 12:39:06;;;;;;;;;;;;;;;19.06;47.06;101594.56;5052267;27;99925;-85
2021/10/26 12:44:28;;;;;;;;;;;;;;;18.84;47.60;101594.09;5053251;27;96735;-86
2021/10/26 12:55:54;;;;;;;;;;;;;;;19.61;46.02;101586.88;5047480;27;96991;-87
2021/10/26 12:58:54;;;;;;;;;;;;;;;19.34;46.63;101589.34;5055614;27;96810;-89
2021/10/26 13:01:37;;;;;;;;;;;;;;;19.02;46.86;101587.66;5009361;28;99114;-86
2021/10/26 13:10:10;;;;;;;;;;;;;;;19.46;45.89;101583.28;5039249;28;96681;-86
2021/10/26 13:13:05;;;;;;;;;;;;;;;19.00;46.82;101573.50;5052733;27;97089;-86
2021/10/26 13:15:54;;;;;;;;;;;;;;;18.49;47.95;101582.63;5050331;28;96777;-86
2021/10/26 13:18:24;;;;;;;;;;;;;;;18.96;47.14;101582.66;5056525;27;96586;-86
2021/10/26 13:20:54;;;;;;;;;;;;;;;19.13;46.37;101570.97;5049443;27;98837;-83
2021/10/26 13:32:03;;;;;;;;;;;;;;;19.39;45.88;101581.88;5014021;28;97761;-86
2021/10/26 13:42:38;;;;;;;;;;;;;;;18.96;46.78;101588.91;5019383;28;96063;-87
2021/10/26 13:47:50;;;;;;;;;;;;;;;19.05;46.47;101587.47;5013350;28;96833;-87
2021/10/26 13:50:18;;;;;;;;;;;;;;;19.19;46.29;101590.22;5008363;28;97461;-86
2021/10/26 13:52:44;;;;;;;;;;;;;;;18.90;46.84;101585.69;5001412;28;96720;-85
2021/10/26 13:55:19;;;;;;;;;;;;;;;19.24;46.42;101589.94;5008219;28;99039;-87
2021/10/26 13:58:12;;;;;;;;;;;;;;;19.09;46.68;101586.38;5012000;28;101534;-87
2021/10/26 14:09:28;;;;;;;;;;;;;;;19.38;45.66;101593.56;5013002;28;99552;-83
2021/10/26 14:11:54;;;;;;;;;;;;;;;19.39;46.07;101587.25;4996921;28;96891;-83
2021/10/26 14:14:20;;;;;;;;;;;;;;;19.35;46.29;101592.88;5002864;28;97307;-85
2021/10/26 14:16:48;;;;;;;;;;;;;;;19.15;46.67;101594.06;4996143;28;99928;-84
2021/10/26 14:19:18;;;;;;;;;;;;;;;19.11;46.93;101598.72;4998807;28;98472;-84
2021/10/26 14:21:51;;;;;;;;;;;;;;;18.97;46.78;101600.47;5000845;28;96801;-84
2021/10/26 14:26:58;;;;;;;;;;;;;;;18.94;47.29;101608.66;4999320;28;97379;-81
2021/10/26 14:29:27;;;;;;;;;;;;;;;18.46;48.19;101599.69;5000731;28;98414;-81
2021/10/26 14:31:55;;;;;;;;;;;;;;;19.01;47.29;101604.69;4983979;28;96928;-82
2021/10/26 14:34:23;;;;;;;;;;;;;;;18.84;47.64;101610.97;5001368;28;97277;-81
2021/10/26 14:37:00;;;;;;;;;;;;;;;18.69;47.71;101607.38;5005384;28;99250;-82
2021/10/26 14:39:40;;;;;;;;;;;;;;;18.80;47.76;101606.75;5001655;28;99150;-80
2021/10/26 14:53:26;;;;;;;;;;;;;;;18.57;48.69;101621.44;4995606;28;97163;-81
2021/10/26 14:56:07;;;;;;;;;;;;;;;18.55;48.80;101622.44;4991946;28;96692;-82
2021/10/26 14:58:35;;;;;;;;;;;;;;;18.39;49.54;101637.56;4994527;28;98396;-82
2021/10/26 15:01:07;;;;;;;;;;;;;;;18.69;48.89;101627.94;5003745;28;98816;-80
2021/10/26 15:06:11;;;;;;;;;;;;;;;18.74;49.07;101641.91;5021416;22;97335;-82
2021/10/26 15:08:50;;;;;;;;;;;;;;;18.48;49.70;101645.13;5013223;28;98589;-82
2021/10/26 15:11:20;;;;;;;;;;;;;;;18.77;48.98;101639.09;5031094;28;98848;-84
2021/10/26 15:13:49;;;;;;;;;;;;;;;18.83;48.80;101644.09;5034753;28;96877;-83
2021/10/26 15:16:18;;;;;;;;;;;;;;;18.78;49.35;101648.81;5017886;28;97556;-82
2021/10/26 15:18:54;;;;;;;;;;;;;;;18.63;49.58;101637.16;5007339;28;96994;-85
2021/10/26 15:21:25;;;;;;;;;;;;;;;18.62;49.83;101646.13;5021902;28;99361;-82
2021/10/26 15:24:03;;;;;;;;;;;;;;;18.56;49.85;101646.47;5022228;28;96763;-83
2021/10/26 15:34:49;;;;;;;;;;;;;;;18.47;50.45;101657.63;5022486;28;96683;-81
2021/10/26 15:37:15;;;;;;;;;;;;;;;18.35;50.78;101660.97;5018623;28;96857;-82
2021/10/26 15:39:47;;;;;;;;;;;;;;;18.38;50.59;101665.31;5026903;28;99644;-81
2021/10/26 15:42:13;;;;;;;;;;;;;;;18.26;51.16;101665.00;5030265;28;101273;-81
2021/10/26 15:44:42;;;;;;;;;;;;;;;18.40;50.73;101679.44;5025136;28;96833;-81
2021/10/26 15:47:09;;;;;;;;;;;;;;;18.39;51.14;101670.56;5036166;27;96306;-81
2021/10/26 15:49:36;;;;;;;;;;;;;;;18.27;51.27;101674.75;5037658;27;100333;-83
2021/10/26 15:55:01;;;;;;;;;;;;;;;18.25;51.57;101673.94;5034224;27;96491;-83
2021/10/26 15:57:33;;;;;;;;;;;;;;;18.26;51.29;101677.50;5031531;27;96574;-84
2021/10/26 16:00:00;;;;;;;;;;;;;;;18.35;51.38;101681.50;5041890;27;98102;-83
2021/10/26 16:02:30;;;;;;;;;;;;;;;18.28;51.30;101692.53;5047673;27;96846;-84
2021/10/26 16:04:58;;;;;;;;;;;;;;;18.28;51.53;101684.50;5022667;27;96650;-85
2021/10/26 16:07:32;;;;;;;;;;;;;;;18.40;50.93;101688.34;5016705;27;97515;-86
2021/10/26 16:10:04;;;;;;;;;;;;;;;18.25;51.40;101694.50;5011945;28;97832;-84
2021/10/26 16:12:33;;;;;;;;;;;;;;;18.12;52.05;101696.06;5032777;27;99884;-84
2021/10/26 16:15:07;;;;;;;;;;;;;;;18.31;51.37;101691.53;5040430;28;96613;-84
2021/10/26 16:17:35;;;;;;;;;;;;;;;18.13;51.48;101692.47;5018361;27;96033;-81
2021/10/26 16:20:02;;;;;;;;;;;;;;;18.18;51.60;101698.47;5041005;27;96731;-85
2021/10/26 16:25:12;;;;;;;;;;;;;;;18.01;51.80;101699.31;5027294;28;96062;-84
2021/10/26 16:27:40;;;;;;;;;;;;;;;18.05;52.13;101700.03;5032161;28;96691;-85
2021/10/26 16:30:10;;;;;;;;;;;;;;;17.98;52.42;101694.13;5032609;28;96361;-85
2021/10/26 16:32:39;;;;;;;;;;;;;;;17.99;52.58;101703.00;5024228;28;100935;-86
2021/10/26 16:35:07;;;;;;;;;;;;;;;17.93;52.56;101707.72;5024447;28;96919;-85
2021/10/26 16:37:35;;;;;;;;;;;;;;;17.88;52.94;101714.25;5020183;28;97389;-84
2021/10/26 16:40:04;;;;;;;;;;;;;;;17.93;52.52;101714.88;5003880;28;97882;-84
2021/10/26 16:42:43;;;;;;;;;;;;;;;17.98;52.57;101712.84;5022413;28;98569;-86
2021/10/26 16:45:29;;;;;;;;;;;;;;;17.91;52.52;101719.47;5012683;28;96967;-86
2021/10/26 16:47:57;;;;;;;;;;;;;;;17.84;52.84;101718.91;5034663;28;97205;-86
2021/10/26 16:53:11;;;;;;;;;;;;;;;17.79;52.66;101728.06;5026495;28;98422;-85
2021/10/26 16:55:40;;;;;;;;;;;;;;;17.69;52.40;101725.00;5025799;28;96800;-86
2021/10/26 17:00:58;;;;;;;;;;;;;;;17.74;52.15;101722.97;5018836;28;99733;-85
2021/10/26 17:03:35;;;;;;;;;;;;;;;17.67;52.45;101716.19;5028096;28;99523;-85
2021/10/26 17:06:02;;;;;;;;;;;;;;;17.77;51.86;101722.81;5021039;28;97661;-85
2021/10/26 17:08:30;;;;;;;;;;;;;;;17.80;51.87;101729.81;5035692;28;96822;-84
2021/10/26 17:11:06;;;;;;;;;;;;;;;17.63;52.46;101733.31;5036329;28;98683;-85
2021/10/26 17:13:44;;;;;;;;;;;;;;;17.50;52.90;101732.16;5031475;28;98526;-84
2021/10/26 17:16:14;;;;;;;;;;;;;;;17.68;52.43;101741.09;5034473;28;96749;-85
2021/10/26 17:18:42;;;;;;;;;;;;;;;17.59;53.03;101739.72;5024763;28;97298;-86
2021/10/26 17:21:10;;;;;;;;;;;;;;;17.63;52.64;101741.34;5029087;28;98525;-86
2021/10/26 17:23:41;;;;;;;;;;;;;;;17.51;52.82;101737.44;5028230;27;98891;-85
2021/10/26 17:26:09;;;;;;;;;;;;;;;17.61;52.64;101732.53;5045153;27;96791;-85
2021/10/26 17:31:24;;;;;;;;;;;;;;;17.40;52.72;101733.53;5038635;28;98859;-83
2021/10/26 17:36:33;;;;;;;;;;;;;;;17.55;52.29;101748.84;5025460;28;96650;-85
2021/10/26 17:39:01;;;;;;;;;;;;;;;17.60;51.98;101757.47;5023843;28;96881;-86
2021/10/26 17:41:31;;;;;;;;;;;;;;;17.43;52.18;101749.44;5016621;28;99921;-87
2021/10/26 17:44:13;;;;;;;;;;;;;;;17.50;51.99;101757.09;5021118;28;101086;-83
2021/10/26 17:46:49;;;;;;;;;;;;;;;17.44;52.14;101760.06;5022457;28;96800;-85
2021/10/26 17:49:17;;;;;;;;;;;;;;;17.57;51.80;101762.13;5024300;28;98066;-85
2021/10/26 17:51:50;;;;;;;;;;;;;;;17.55;51.71;101764.88;5019725;28;97806;-86
2021/10/26 17:54:17;;;;;;;;;;;;;;;17.54;51.69;101758.66;5027577;28;101038;-84
2021/10/26 17:56:46;;;;;;;;;;;;;;;17.59;51.61;101766.44;5013542;28;96710;-83
2021/10/26 17:59:17;;;;;;;;;;;;;;;17.47;51.86;101770.56;5028928;28;96756;-85
2021/10/26 18:01:54;;;;;;;;;;;;;;;17.60;51.53;101768.19;5022659;28;97772;-85
2021/10/26 18:04:21;;;;;;;;;;;;;;;17.18;52.52;101764.88;5006273;28;100147;-84
2021/10/26 18:14:49;;;;;;;;;;;;;;;17.37;51.92;101771.09;5025911;28;96770;-88
2021/10/26 18:17:31;;;;;;;;;;;;;;;17.28;52.17;101766.19;5018558;28;96724;-86
2021/10/26 18:23:05;;;;;;;;;;;;;;;17.38;51.81;101767.50;5024820;28;99944;-88
2021/10/26 18:28:16;;;;;;;;;;;;;;;17.26;52.03;101763.59;5037472;28;97516;-87
2021/10/26 18:30:43;;;;;;;;;;;;;;;17.29;51.75;101763.44;5030796;28;97056;-83
2021/10/26 18:33:10;;;;;;;;;;;;;;;17.29;51.68;101759.91;5019934;28;100594;-83
2021/10/26 18:35:37;;;;;;;;;;;;;;;17.30;51.87;101758.97;5029763;28;98466;-83
2021/10/26 18:38:23;;;;;;;;;;;;;;;17.25;51.87;101761.00;5029536;27;96651;-82
2021/10/26 18:40:56;;;;;;;;;;;;;;;17.09;52.10;101766.19;5018196;28;96556;-84
2021/10/26 18:46:12;;;;;;;;;;;;;;;16.93;52.28;101758.03;5036514;27;98388;-83
2021/10/26 18:51:23;;;;;;;;;;;;;;;17.15;51.72;101765.88;5020642;28;96206;-84
2021/10/26 18:53:54;;;;;;;;;;;;;;;17.18;51.65;101770.22;5038741;28;99079;-84
2021/10/26 18:56:29;;;;;;;;;;;;;;;17.09;51.68;101767.03;5028092;28;98004;-83
2021/10/26 18:58:56;;;;;;;;;;;;;;;17.13;51.69;101757.94;5033383;28;97950;-83
2021/10/26 19:01:24;;;;;;;;;;;;;;;17.04;51.71;101763.72;5026596;28;96748;-82
2021/10/26 19:03:52;;;;;;;;;;;;;;;17.04;51.70;101763.72;5030373;28;98255;-84
2021/10/26 19:06:20;;;;;;;;;;;;;;;16.86;52.21;101764.59;5031797;28;98805;-84
2021/10/26 19:08:48;;;;;;;;;;;;;;;16.79;52.00;101771.13;5025116;28;97081;-85
2021/10/26 19:11:20;;;;;;;;;;;;;;;16.83;52.24;101766.50;5018863;28;97419;-84
2021/10/26 19:13:51;;;;;;;;;;;;;;;16.80;52.22;101770.19;5021919;28;99686;-85
2021/10/26 19:16:22;;;;;;;;;;;;;;;16.73;52.03;101772.28;5030356;27;96563;-85
2021/10/26 19:21:42;;;;;;;;;;;;;;;16.80;52.08;101756.84;5022686;28;96634;-88
2021/10/26 19:24:09;;;;;;;;;;;;;;;16.82;51.74;101762.97;5012277;28;99860;-85
2021/10/26 19:26:38;;;;;;;;;;;;;;;16.72;51.96;101764.34;5018131;28;98927;-84
2021/10/26 19:29:05;;;;;;;;;;;;;;;16.82;51.82;101772.78;5023231;28;96734;-90
2021/10/26 19:31:32;;;;;;;;;;;;;;;16.68;51.86;101768.91;5014808;28;96870;-87
2021/10/26 19:42:05;;;;;;;;;;;;;;;16.61;52.25;101785.25;5029305;28;96518;-85
2021/10/26 19:47:14;;;;;;;;;;;;;;;16.63;52.18;101786.06;5020656;28;96739;-87
2021/10/26 19:52:23;;;;;;;;;;;;;;;16.50;52.21;101796.38;5029074;28;96706;-86
2021/10/26 19:57:48;;;;;;;;;;;;;;;16.57;52.01;101794.31;5033648;27;98714;-90
2021/10/26 20:00:23;;;;;;;;;;;;;;;16.37;52.38;101802.31;5023885;28;96581;-86
2021/10/26 20:08:27;;;;;;;;;;;;;;;16.49;51.54;101802.66;4995810;28;98085;-90
2021/10/26 20:10:55;;;;;;;;;;;;;;;16.38;51.81;101804.06;5038273;27;95881;-88